Latest Weather Observations for Warra

IDT60801

Issued at 2:31 pm EDT Friday 19 December 2014 (issued every 30 minutes, with the page automatically refreshed every 10 minutes)

About weather observations | Map of weather stations | Latest weather observations for TAS | Other Formats
Station Details ID: 097024 Name: WARRA Lat: -43.06 Lon: 146.70 Height: 495.0 m
Data from the previous 72 hours. | See also: Recent months at Warra
Date/Time
EDT
Temp
°C
App
Temp
°C
Dew
Point
Rel
Hum
%
Delta-T
°C
Wind Press
QNH
hPa
Press
MSL
hPa
Rain
since 9 am
mm
Dir
 
Spd
km/h
Gust
km/h
Spd
kts
Gust
kts
19/02:30pm 11.7 6.3 2.7 54 4.0 W 20 37 11 20 - - 0.8
19/02:00pm 13.0 8.0 3.4 52 4.4 W 19 32 10 17 - - 0.8
19/01:30pm 11.7 6.5 2.2 52 4.2 W 19 32 10 17 - - 0.8
19/01:00pm 11.4 6.0 2.7 55 3.9 WSW 20 33 11 18 - - 0.8
19/12:30pm 12.0 8.4 5.2 63 3.2 WNW 13 28 7 15 - - 0.8
19/12:00pm 9.5 5.1 4.9 73 2.1 WNW 17 26 9 14 - - 0.8
19/11:30am 9.3 5.3 5.1 75 1.9 SW 15 26 8 14 - - 0.4
19/11:00am 10.3 7.0 6.6 78 1.8 SW 13 22 7 12 - - 0.4
19/10:30am 7.9 4.5 6.0 88 0.9 SW 13 24 7 13 - - 0.4
19/10:00am 10.2 5.5 3.3 62 3.1 W 17 32 9 17 - - 0.0
19/09:30am 10.5 5.9 3.5 62 3.2 WNW 17 33 9 18 - - 0.0
19/09:00am 8.6 4.1 4.0 73 2.1 W 17 24 9 13 - - 4.8
19/08:30am 9.1 5.5 4.9 75 1.9 W 13 22 7 12 - - 4.8
19/08:00am 8.4 5.4 6.0 85 1.1 SW 11 17 6 9 - - 4.8
19/07:30am 7.7 3.2 4.3 79 1.5 W 17 33 9 18 - - 4.8
19/07:00am 7.1 3.0 4.1 81 1.3 W 15 30 8 16 - - 4.8
19/06:30am 6.3 2.6 4.6 89 0.8 W 13 24 7 13 - - 4.8
19/06:00am 5.8 3.0 5.2 96 0.3 W 9 15 5 8 - - 4.8
19/05:30am 5.4 2.2 5.1 98 0.1 W 11 20 6 11 - - 4.8
19/05:00am 5.7 1.6 4.3 91 0.6 W 15 24 8 13 - - 4.0
19/04:30am 5.5 1.4 4.3 92 0.5 W 15 24 8 13 - - 4.0
19/04:00am 5.3 1.3 4.9 97 0.2 W 15 26 8 14 - - 4.0
19/03:30am 5.2 2.7 4.8 97 0.2 SW 7 15 4 8 - - 4.0
19/03:00am 5.5 2.7 5.1 97 0.2 W 9 20 5 11 - - 4.0
19/02:30am 6.1 3.0 5.4 95 0.3 W 11 19 6 10 - - 3.4
19/02:00am 6.2 2.5 4.4 88 0.8 W 13 24 7 13 - - 2.8
19/01:30am 6.3 3.1 5.1 92 0.5 W 11 20 6 11 - - 2.8
19/01:00am 6.4 2.8 4.9 90 0.7 W 13 24 7 13 - - 2.8
19/12:30am 5.9 1.8 4.2 89 0.7 W 15 28 8 15 - - 2.8
19/12:00am 6.9 2.8 4.6 85 1.0 W 15 28 8 15 - - 2.0
 
Date/Time
EDT
Temp
°C
App
Temp
°C
Dew
Point
Rel
Hum
%
Delta-T
°C
Wind Press
QNH
hPa
Press
MSL
hPa
Rain
since 9 am
mm
Dir
 
Spd
km/h
Gust
km/h
Spd
kts
Gust
kts
18/11:30pm 7.1 3.0 4.6 84 1.1 W 15 26 8 14 - - 2.0
18/11:00pm 6.9 3.6 4.4 84 1.1 W 11 20 6 11 - - 2.0
18/10:30pm 6.8 2.4 4.5 85 1.0 WSW 17 30 9 16 - - 2.0
18/10:00pm 6.7 2.7 4.7 87 0.9 W 15 28 8 15 - - 2.0
18/09:30pm 7.9 3.7 3.9 76 1.8 W 15 32 8 17 - - 1.6
18/09:00pm 7.8 2.9 4.2 78 1.6 W 19 43 10 23 - - 1.6
18/08:30pm 8.0 1.9 4.6 79 1.5 W 26 41 14 22 - - 1.6
18/08:00pm 8.4 2.3 5.0 79 1.6 W 26 50 14 27 - - 1.6
18/07:48pm 9.0 2.5 4.8 75 1.9 W 28 52 15 28 - - 1.6
18/07:30pm 9.2 3.6 5.4 77 1.8 W 24 37 13 20 - - 1.4
18/07:00pm 9.5 4.8 5.3 75 2.0 W 19 39 10 21 - - 1.4
18/06:30pm 10.1 5.5 6.4 78 1.8 WNW 20 39 11 21 - - 1.4
18/06:03pm 10.0 3.8 6.2 77 1.8 WNW 28 46 15 25 - - 1.4
18/06:00pm 10.1 4.4 6.6 79 1.7 WNW 26 46 14 25 - - 1.4
18/05:30pm 10.1 6.6 7.2 82 1.4 W 15 24 8 13 - - 1.2
18/05:00pm 11.0 8.3 7.3 78 1.8 NW 11 22 6 12 - - 1.2
18/04:30pm 10.8 8.1 7.3 79 1.7 NW 11 30 6 16 - - 1.2
18/04:00pm 10.9 8.5 7.2 78 1.8 NW 9 26 5 14 - - 1.2
18/03:30pm 10.6 6.8 7.7 82 1.4 WNW 17 32 9 17 - - 1.2
18/03:00pm 11.0 6.9 8.8 86 1.1 NW 20 37 11 20 - - 1.2
18/02:30pm 11.8 9.1 9.0 83 1.4 WNW 13 22 7 12 - - 0.6
18/02:00pm 13.2 8.9 7.9 70 2.7 NNW 20 30 11 16 - - 0.0
18/01:30pm 16.4 13.8 7.9 57 4.4 NNW 11 20 6 11 - - 0.0
18/01:00pm 13.9 10.6 6.3 60 3.7 NNW 13 24 7 13 - - 0.0
18/12:30pm 14.3 11.0 6.6 60 3.8 NNW 13 22 7 12 - - 0.0
18/12:00pm 13.1 10.1 7.8 70 2.7 NNW 13 24 7 13 - - 0.0
18/11:30am 12.8 10.2 6.2 64 3.2 NNE 9 13 5 7 - - 0.0
18/11:00am 12.9 10.8 6.5 65 3.1 NNE 7 9 4 5 - - 0.0
18/10:30am 13.7 11.0 5.6 58 3.9 NNE 9 15 5 8 - - 0.0
18/10:00am 13.4 9.4 5.1 57 4.0 N 15 24 8 13 - - 0.0
18/09:30am 13.4 9.8 5.1 57 4.0 NNW 13 24 7 13 - - 0.0
18/09:00am 12.6 8.6 4.8 59 3.7 N 15 28 8 15 - - 0.4
18/08:30am 11.8 8.2 5.0 63 3.2 N 13 17 7 9 - - 0.4
18/08:00am 10.1 7.0 3.8 65 2.9 NNW 9 15 5 8 - - 0.4
18/07:30am 9.4 4.4 3.6 67 2.6 N 19 30 10 16 - - 0.4
18/07:00am 8.4 4.6 3.7 72 2.1 NNW 13 20 7 11 - - 0.4
18/06:30am 8.0 4.1 3.3 72 2.1 NW 13 20 7 11 - - 0.4
18/06:00am 7.1 2.8 3.0 75 1.8 NNW 15 20 8 11 - - 0.4
18/05:30am 6.8 3.2 3.1 77 1.6 NW 11 13 6 7 - - 0.4
18/05:00am 7.0 3.0 2.7 74 1.8 NW 13 19 7 10 - - 0.4
18/04:30am 7.1 2.3 2.8 74 1.9 NW 17 24 9 13 - - 0.4
18/04:00am 5.8 2.9 2.8 81 1.3 NNW 7 15 4 8 - - 0.4
18/03:30am 5.7 3.0 2.4 79 1.4 W 6 9 3 5 - - 0.4
18/03:00am 5.6 2.9 2.8 82 1.2 SW 6 11 3 6 - - 0.4
18/02:30am 4.0 1.1 2.5 90 0.6 WSW 7 11 4 6 - - 0.4
18/02:00am 4.4 1.6 2.3 86 0.9 W 6 7 3 4 - - 0.4
18/01:30am 5.4 2.5 2.6 82 1.2 NNE 7 13 4 7 - - 0.4
18/01:00am 5.8 3.1 2.8 81 1.3 NNW 6 13 3 7 - - 0.4
18/12:30am 6.7 3.8 2.6 75 1.7 NNW 7 15 4 8 - - 0.4
18/12:00am 7.6 3.3 3.1 73 2.0 NNW 15 24 8 13 - - 0.4
 
Date/Time
EDT
Temp
°C
App
Temp
°C
Dew
Point
Rel
Hum
%
Delta-T
°C
Wind Press
QNH
hPa
Press
MSL
hPa
Rain
since 9 am
mm
Dir
 
Spd
km/h
Gust
km/h
Spd
kts
Gust
kts
17/11:30pm 7.6 3.3 3.1 73 2.0 NW 15 24 8 13 - - 0.4
17/11:00pm 7.7 3.4 3.0 72 2.0 NNW 15 22 8 12 - - 0.4
17/10:30pm 7.6 3.3 3.3 74 1.9 NW 15 24 8 13 - - 0.4
17/10:00pm 7.7 2.7 3.4 74 1.9 WNW 19 28 10 15 - - 0.4
17/09:30pm 8.0 2.8 3.5 73 2.0 WNW 20 30 11 16 - - 0.4
17/09:00pm 7.9 3.3 3.9 76 1.8 WNW 17 26 9 14 - - 0.4
17/08:30pm 8.1 4.8 4.5 78 1.6 NNW 11 19 6 10 - - 0.4
17/08:00pm 8.7 5.0 4.5 75 1.9 NW 13 22 7 12 - - 0.4
17/07:30pm 9.4 5.4 4.8 73 2.1 NW 15 24 8 13 - - 0.4
17/07:00pm 9.0 5.6 6.1 82 1.4 W 13 22 7 12 - - 0.4
17/06:30pm 10.4 6.8 5.0 69 2.5 NW 13 20 7 11 - - 0.2
17/06:00pm 10.5 8.0 4.9 68 2.6 N 7 11 4 6 - - 0.2
17/05:30pm 10.4 6.8 5.0 69 2.5 WNW 13 26 7 14 - - 0.2
17/05:00pm 12.2 7.0 2.6 52 4.3 WNW 19 32 10 17 - - 0.2
17/04:30pm 13.1 8.6 2.4 48 4.8 WNW 15 24 8 13 - - 0.2
17/04:00pm 13.2 7.8 2.7 49 4.8 NW 20 35 11 19 - - 0.2
17/03:30pm 13.5 8.3 2.7 48 4.9 NW 19 30 10 16 - - 0.2
17/03:00pm 12.4 7.2 2.6 51 4.4 WNW 19 33 10 18 - - 0.2
17/02:30pm 12.0 7.2 2.5 52 4.2 WNW 17 32 9 17 - - 0.2
17/02:00pm 13.0 8.2 2.5 49 4.7 WNW 17 30 9 16 - - 0.2
17/01:30pm 12.0 7.2 2.7 53 4.2 WNW 17 28 9 15 - - 0.2
17/01:00pm 12.8 9.2 5.0 59 3.7 WNW 13 22 7 12 - - 0.0
17/12:30pm 9.8 5.9 6.9 82 1.4 WNW 17 30 9 16 - - 0.0
17/12:00pm 10.1 7.2 4.5 68 2.6 W 9 17 5 9 - - 0.0
17/11:30am 10.4 5.3 3.0 60 3.3 W 19 35 10 19 - - 0.0
17/11:00am 9.1 6.2 4.5 73 2.1 SW 9 19 5 10 - - 0.0
17/10:30am 8.1 4.0 4.3 77 1.7 W 15 32 8 17 - - 0.0
17/10:00am 8.9 3.8 3.1 67 2.6 WNW 19 37 10 20 - - 0.0
17/09:30am 8.3 3.3 3.8 73 2.0 W 19 39 10 21 - - 0.0
17/09:00am 8.7 3.6 4.3 74 2.0 W 20 41 11 22 - - 20.6
17/08:30am 7.9 2.8 3.9 76 1.8 WNW 20 50 11 27 - - 20.6
17/08:00am 7.9 2.5 4.5 79 1.5 W 22 35 12 19 - - 20.6
17/07:30am 6.7 2.2 4.0 83 1.2 W 17 41 9 22 - - 20.4
17/07:00am 5.7 1.3 4.5 92 0.5 WSW 17 30 9 16 - - 20.4
17/06:30am 5.4 -1.0 3.1 85 1.0 W 26 46 14 25 - - 20.0
17/06:07am 4.8 -2.1 2.8 87 0.8 W 28 46 15 25 - - 20.0
17/06:00am 5.0 -1.0 3.2 88 0.8 W 24 44 13 24 - - 19.8
17/05:30am 4.7 -1.3 3.5 92 0.5 W 24 41 13 22 - - 19.8
17/05:00am 5.1 0.2 4.1 93 0.4 W 19 33 10 18 - - 19.2
17/04:38am 5.5 -1.3 3.2 85 1.0 W 28 56 15 30 - - 18.2
17/04:30am 5.3 0.0 2.8 84 1.1 W 20 48 11 26 - - 18.2
17/04:04am 5.3 -1.6 2.7 83 1.1 W 28 65 15 35 - - 18.2
17/04:00am 5.3 -1.2 2.8 84 1.1 W 26 59 14 32 - - 18.2
17/03:30am 6.4 -0.9 2.5 76 1.7 W 30 61 16 33 - - 17.4
17/03:04am 6.1 -1.6 3.3 82 1.2 W 33 76 18 41 - - 17.4
17/03:00am 5.7 -1.9 3.0 83 1.2 W 32 50 17 27 - - 17.4
17/02:30am 6.1 -0.7 3.1 81 1.3 W 28 50 15 27 - - 17.4
17/02:11am 6.3 -0.4 3.6 83 1.2 W 28 54 15 29 - - 17.4
17/02:00am 6.2 0.7 3.9 85 1.0 W 22 43 12 23 - - 17.4
17/01:30am 6.3 0.1 4.3 87 0.9 W 26 41 14 22 - - 17.4
17/01:00am 6.3 -0.2 4.8 90 0.7 W 28 52 15 28 - - 17.4
17/12:30am 6.6 -0.6 5.2 91 0.6 W 32 69 17 37 - - 17.2
17/12:26am 6.6 0.2 5.1 90 0.7 W 28 69 15 37 - - 17.0
17/12:25am 6.5 0.5 5.3 92 0.5 W 26 69 14 37 - - 17.0
17/12:05am 7.1 0.8 5.9 92 0.6 W 28 48 15 26 - - 15.8
17/12:00am 7.0 1.1 5.8 92 0.6 W 26 46 14 25 - - 15.8
 
Date/Time
EDT
Temp
°C
App
Temp
°C
Dew
Point
Rel
Hum
%
Delta-T
°C
Wind Press
QNH
hPa
Press
MSL
hPa
Rain
since 9 am
mm
Dir
 
Spd
km/h
Gust
km/h
Spd
kts
Gust
kts
16/11:39pm 7.6 1.5 6.4 92 0.6 W 28 54 15 29 - - 15.6
16/11:30pm 7.5 2.1 6.3 92 0.6 W 24 44 13 24 - - 15.2
16/11:11pm 7.6 1.4 6.2 91 0.7 W 28 56 15 30 - - 15.2
16/11:00pm 7.5 2.0 6.1 91 0.7 W 24 44 13 24 - - 15.0
16/10:30pm 7.9 2.9 6.4 90 0.7 W 22 46 12 25 - - 14.8
16/10:00pm 8.2 1.4 6.7 90 0.7 W 32 56 17 30 - - 14.6
16/09:51pm 8.1 2.0 6.7 91 0.7 W 28 59 15 32 - - 14.6
16/09:30pm 8.1 2.4 6.7 91 0.7 W 26 43 14 23 - - 14.4
16/09:21pm 8.1 2.0 6.7 91 0.7 W 28 54 15 29 - - 14.4
16/09:00pm 8.1 3.4 5.9 86 1.0 W 20 46 11 25 - - 14.0
16/08:30pm 8.5 2.5 7.0 90 0.7 W 28 57 15 31 - - 13.8
16/08:00pm 9.3 2.5 6.9 85 1.2 WNW 32 56 17 30 - - 12.4
16/07:30pm 11.8 5.4 7.1 73 2.3 NW 30 52 16 28 - - 11.6
16/07:27pm 11.8 5.9 7.3 74 2.2 NW 28 52 15 28 - - 11.6
16/07:00pm 12.3 7.2 7.6 73 2.4 WNW 24 41 13 22 - - 11.6
16/06:30pm 13.0 8.4 8.1 72 2.5 NW 22 37 12 20 - - 11.6
16/06:00pm 13.6 9.6 8.2 70 2.8 WNW 19 35 10 19 - - 11.6
16/05:38pm 14.0 10.2 9.0 72 2.6 WNW 19 48 10 26 - - 11.6
16/05:37pm 14.0 10.5 8.8 71 2.7 NW 17 48 9 26 - - 11.6
16/05:30pm 15.3 14.3 12.4 83 1.6 NW 9 19 5 10 - - 11.6
16/05:00pm 14.2 12.0 12.1 87 1.2 WNW 15 26 8 14 - - 11.6
16/04:30pm 16.0 13.3 11.8 76 2.3 W 17 26 9 14 - - 10.8
16/04:00pm 18.2 16.4 13.3 73 2.8 NW 15 26 8 14 - - 10.8
16/03:30pm 17.3 16.6 14.4 83 1.7 N 11 15 6 8 - - 10.6
16/03:00pm 14.7 13.3 14.5 99 0.1 WSW 15 24 8 13 - - 10.6

Other Formats:

Comma delimited format used in spreadsheet applications
http://www.bom.gov.au/fwo/IDT60801/IDT60801.95962.axf

JavaScript Object Notation format (JSON) in row-major order
http://www.bom.gov.au/fwo/IDT60801/IDT60801.95962.json